createdAt,value
2019-04-07T00:01:57.487Z,99084.73
2019-04-07T00:04:29.560Z,99088.56
2019-04-07T00:07:13.788Z,99087.00
2019-04-07T00:09:47.525Z,99085.47
2019-04-07T00:12:17.867Z,99084.25
2019-04-07T00:14:49.314Z,99086.43
2019-04-07T00:17:20.701Z,99078.72
2019-04-07T00:19:52.039Z,99081.73
2019-04-07T00:22:22.204Z,99084.06
2019-04-07T00:24:51.782Z,99082.38
2019-04-07T00:27:21.287Z,99082.34
2019-04-07T00:29:50.890Z,99093.73
2019-04-07T00:32:20.318Z,99090.38
2019-04-07T00:34:49.843Z,99095.91
2019-04-07T00:37:23.528Z,99097.06
2019-04-07T00:39:53.260Z,99097.52
2019-04-07T00:42:22.909Z,99099.55
2019-04-07T00:44:52.358Z,99103.55
2019-04-07T00:47:21.933Z,99098.70
2019-04-07T00:49:51.340Z,99102.37
2019-04-07T00:52:25.423Z,99104.36
2019-04-07T00:54:54.861Z,99105.70
2019-04-07T00:57:24.310Z,99109.89
2019-04-07T00:59:54.039Z,99105.00
2019-04-07T01:02:23.520Z,99106.95
2019-04-07T01:04:53.436Z,99108.24
2019-04-07T01:07:23.451Z,99106.91
2019-04-07T01:09:53.230Z,99107.55
2019-04-07T01:12:23.182Z,99110.47
2019-04-07T01:14:53.366Z,99108.25
2019-04-07T01:17:23.697Z,99113.75
2019-04-07T01:19:53.585Z,99114.05
2019-04-07T01:22:23.384Z,99114.05
2019-04-07T01:24:53.376Z,99114.84
2019-04-07T01:27:23.575Z,99117.66
2019-04-07T01:29:54.178Z,99118.09
2019-04-07T01:32:24.094Z,99113.70
2019-04-07T01:34:54.609Z,99110.97
2019-04-07T01:37:25.232Z,99114.44
2019-04-07T01:39:54.928Z,99117.30
2019-04-07T01:42:26.167Z,99122.09
2019-04-07T01:45:15.992Z,99118.58
2019-04-07T01:48:06.092Z,99118.72
2019-04-07T01:50:43.928Z,99126.73
2019-04-07T01:53:21.262Z,99121.00
2019-04-07T01:55:53.745Z,99118.03
2019-04-07T01:58:30.882Z,99120.01
2019-04-07T02:01:07.699Z,99113.97
2019-04-07T02:03:53.837Z,99119.75
2019-04-07T02:06:37.394Z,99120.38
2019-04-07T02:09:16.188Z,99115.77
2019-04-07T02:11:53.960Z,99119.13
2019-04-07T02:14:27.681Z,99126.65
2019-04-07T02:17:17.345Z,99122.50
2019-04-07T02:20:00.488Z,99125.31
2019-04-07T02:22:34.401Z,99124.27
2019-04-07T02:25:25.224Z,99125.75
2019-04-07T02:28:12.800Z,99127.67
2019-04-07T02:30:44.727Z,99124.70
2019-04-07T02:33:19.530Z,99127.32
2019-04-07T02:35:50.602Z,99124.65
2019-04-07T02:38:42.629Z,99128.66
2019-04-07T02:41:29.250Z,99126.60
2019-04-07T02:44:17.797Z,99131.39
2019-04-07T02:46:58.764Z,99129.85
2019-04-07T02:49:45.711Z,99131.97
2019-04-07T02:52:33.219Z,99125.72
2019-04-07T02:55:06.861Z,99124.04
2019-04-07T02:57:41.112Z,99122.67
2019-04-07T03:00:12.212Z,99130.83
2019-04-07T03:02:43.556Z,99134.21
2019-04-07T03:05:24.153Z,99143.14
2019-04-07T03:08:01.599Z,99143.05
2019-04-07T03:10:48.662Z,99143.28
2019-04-07T03:13:19.861Z,99146.94
2019-04-07T03:15:54.595Z,99146.55
2019-04-07T03:18:27.022Z,99148.00
2019-04-07T03:20:59.340Z,99147.30
2019-04-07T03:23:36.550Z,99143.80
2019-04-07T03:26:25.894Z,99140.98
2019-04-07T03:28:57.979Z,99140.28
2019-04-07T03:31:30.119Z,99143.02
2019-04-07T03:34:12.427Z,99143.58
2019-04-07T03:37:11.765Z,99144.62
2019-04-07T03:39:20.362Z,99146.51
2019-04-07T03:41:57.717Z,99148.20
2019-04-07T03:44:44.865Z,99146.58
2019-04-07T03:47:18.952Z,99143.14
2019-04-07T03:49:59.715Z,99139.53
2019-04-07T03:52:37.599Z,99142.65
2019-04-07T03:55:09.257Z,99133.87
2019-04-07T03:57:47.708Z,99139.84
2019-04-07T04:01:05.237Z,99145.52
2019-04-07T04:03:53.558Z,99137.84
2019-04-07T04:06:41.946Z,99134.23
2019-04-07T04:09:14.021Z,99130.45
2019-04-07T04:11:45.458Z,99135.72
2019-04-07T04:14:16.597Z,99136.35
2019-04-07T04:16:48.050Z,99138.67
2019-04-07T04:19:18.867Z,99141.09
2019-04-07T04:21:48.424Z,99143.05
2019-04-07T04:24:18.506Z,99135.41
2019-04-07T04:26:50.123Z,99141.51
2019-04-07T04:29:20.142Z,99142.39
2019-04-07T04:31:49.610Z,99147.28
2019-04-07T04:34:19.363Z,99143.91
2019-04-07T04:36:50.098Z,99149.88
2019-04-07T04:39:21.102Z,99144.48
2019-04-07T04:41:50.930Z,99147.64
2019-04-07T04:44:20.650Z,99144.70
2019-04-07T04:46:51.158Z,99141.19
2019-04-07T04:49:21.054Z,99147.64
2019-04-07T04:51:50.618Z,99158.67
2019-04-07T04:54:20.079Z,99164.29
2019-04-07T04:56:50.359Z,99162.67
2019-04-07T04:59:20.334Z,99158.95
2019-04-07T05:01:51.236Z,99160.64
2019-04-07T05:04:21.581Z,99155.37
2019-04-07T05:06:51.567Z,99171.55
2019-04-07T05:09:21.184Z,99164.20
2019-04-07T05:11:51.366Z,99168.91
2019-04-07T05:14:20.871Z,99169.61
2019-04-07T05:16:50.589Z,99168.63
2019-04-07T05:19:20.234Z,99174.38
2019-04-07T05:21:50.458Z,99171.74
2019-04-07T05:24:20.043Z,99177.14
2019-04-07T05:26:49.498Z,99179.53
2019-04-07T05:29:19.065Z,99179.66
2019-04-07T05:31:49.146Z,99179.89
2019-04-07T05:34:21.152Z,99177.42
2019-04-07T05:36:49.840Z,99176.81
2019-04-07T05:39:19.298Z,99179.63
2019-04-07T05:41:49.093Z,99178.61
2019-04-07T05:44:18.905Z,99185.80
2019-04-07T05:46:49.846Z,99186.82
2019-04-07T05:49:22.144Z,99187.63
2019-04-07T05:51:50.659Z,99191.19
2019-04-07T05:54:20.926Z,99197.12
2019-04-07T05:56:51.440Z,99199.28
2019-04-07T05:59:21.246Z,99198.53
2019-04-07T06:01:59.275Z,99201.44
2019-04-07T06:04:23.118Z,99199.17
2019-04-07T06:06:55.058Z,99201.13
2019-04-07T06:09:24.177Z,99194.82
2019-04-07T06:11:54.433Z,99203.05
2019-04-07T06:14:25.151Z,99196.84
2019-04-07T06:16:55.925Z,99195.95
2019-04-07T06:19:26.019Z,99186.87
2019-04-07T06:21:55.604Z,99182.92
2019-04-07T06:24:26.896Z,99179.31
2019-04-07T06:26:56.532Z,99178.28
2019-04-07T06:29:26.513Z,99178.28
2019-04-07T06:31:56.274Z,99179.98
2019-04-07T06:34:26.536Z,99182.41
2019-04-07T06:36:56.595Z,99177.88
2019-04-07T06:39:26.667Z,99184.91
2019-04-07T06:41:58.924Z,99173.31
2019-04-07T06:44:27.966Z,99180.96
2019-04-07T06:47:02.745Z,99176.69
2019-04-07T06:49:48.671Z,99176.27
2019-04-07T06:52:19.989Z,99178.13
2019-04-07T06:55:07.690Z,99175.89
2019-04-07T06:57:55.065Z,99182.14
2019-04-07T07:00:29.196Z,99177.37
2019-04-07T07:03:18.295Z,99177.87
2019-04-07T07:05:49.542Z,99179.61
2019-04-07T07:08:33.537Z,99172.20
2019-04-07T07:11:05.784Z,99170.77
2019-04-07T07:13:41.307Z,99178.29
2019-04-07T07:16:17.300Z,99178.37
2019-04-07T07:19:05.195Z,99172.84
2019-04-07T07:21:42.681Z,99174.75
2019-04-07T07:24:14.666Z,99177.05
2019-04-07T07:26:44.136Z,99174.77
2019-04-07T07:29:16.250Z,99175.73
2019-04-07T07:31:45.206Z,99172.84
2019-04-07T07:34:15.669Z,99170.89
2019-04-07T07:36:46.719Z,99176.38
2019-04-07T07:39:17.648Z,99179.58
2019-04-07T07:41:50.295Z,99180.23
2019-04-07T07:44:18.848Z,99182.31
2019-04-07T07:46:50.411Z,99179.59
2019-04-07T07:49:19.480Z,99185.63
2019-04-07T07:51:49.136Z,99185.31
2019-04-07T07:54:19.344Z,99186.61
2019-04-07T07:56:50.482Z,99185.98
2019-04-07T07:59:20.316Z,99189.77
2019-04-07T08:01:51.378Z,99178.26
2019-04-07T08:04:24.989Z,99177.30
2019-04-07T08:06:52.423Z,99178.16
2019-04-07T08:09:24.798Z,99170.95
2019-04-07T08:11:54.374Z,99174.40
2019-04-07T08:14:23.925Z,99164.46
2019-04-07T08:16:53.405Z,99173.20
2019-04-07T08:19:27.306Z,99173.01
2019-04-07T08:21:54.152Z,99182.24
2019-04-07T08:24:23.729Z,99173.23
2019-04-07T08:26:56.182Z,99168.53
2019-04-07T08:29:24.371Z,99171.06
2019-04-07T08:31:55.384Z,99175.63
2019-04-07T08:34:25.483Z,99178.66
2019-04-07T08:36:55.018Z,99173.53
2019-04-07T08:39:26.966Z,99172.08
2019-04-07T08:41:56.093Z,99163.30
2019-04-07T08:44:28.680Z,99164.08
2019-04-07T08:46:57.979Z,99160.41
2019-04-07T08:49:27.933Z,99164.71
2019-04-07T08:51:58.264Z,99154.83
2019-04-07T08:54:28.622Z,99164.09
2019-04-07T08:56:58.998Z,99166.41
2019-04-07T08:59:29.136Z,99164.69
2019-04-07T09:01:58.954Z,99160.91
2019-04-07T09:04:28.464Z,99160.22
2019-04-07T09:07:00.834Z,99149.31
2019-04-07T09:09:34.111Z,99158.23
2019-04-07T09:12:00.593Z,99153.32
2019-04-07T09:14:30.303Z,99151.17
2019-04-07T09:17:10.723Z,99149.33
2019-04-07T09:19:47.483Z,99146.48
2019-04-07T09:22:29.712Z,99147.22
2019-04-07T09:25:03.453Z,99155.26
2019-04-07T09:27:52.187Z,99152.15
2019-04-07T09:30:23.587Z,99153.61
2019-04-07T09:33:11.461Z,99145.31
2019-04-07T09:35:59.330Z,99137.42
2019-04-07T09:38:49.903Z,99143.11
2019-04-07T09:41:23.163Z,99141.09
2019-04-07T09:44:02.920Z,99145.42
2019-04-07T09:46:41.637Z,99152.27
2019-04-07T09:49:25.830Z,99151.47
2019-04-07T09:52:13.180Z,99156.36
2019-04-07T09:54:53.782Z,99148.35
2019-04-07T09:57:26.727Z,99140.53
2019-04-07T10:00:09.883Z,99143.97
2019-04-07T10:02:58.799Z,99145.81
2019-04-07T10:05:40.395Z,99153.91
2019-04-07T10:08:23.792Z,99141.19
2019-04-07T10:10:58.345Z,99144.75
2019-04-07T10:13:36.136Z,99140.06
2019-04-07T10:16:23.821Z,99146.89
2019-04-07T10:18:55.275Z,99135.02
2019-04-07T10:21:32.816Z,99135.94
2019-04-07T10:24:19.853Z,99132.76
2019-04-07T10:27:00.054Z,99138.73
2019-04-07T10:29:31.875Z,99150.03
2019-04-07T10:32:08.942Z,99139.25
2019-04-07T10:34:43.619Z,99132.66
2019-04-07T10:37:21.892Z,99135.38
2019-04-07T10:39:56.754Z,99142.46
2019-04-07T10:42:27.252Z,99143.45
2019-04-07T10:45:10.797Z,99141.11
2019-04-07T10:47:46.017Z,99133.22
2019-04-07T10:50:34.758Z,99132.58
2019-04-07T10:53:06.487Z,99136.91
2019-04-07T10:55:38.052Z,99124.34
2019-04-07T10:58:24.895Z,99130.67
2019-04-07T11:00:59.725Z,99127.59
2019-04-07T11:03:31.140Z,99118.16
2019-04-07T11:06:09.755Z,99123.04
2019-04-07T11:08:42.786Z,99136.27
2019-04-07T11:11:23.190Z,99124.42
2019-04-07T11:14:13.373Z,99131.17
2019-04-07T11:16:54.923Z,99119.28
2019-04-07T11:19:48.873Z,99120.17
2019-04-07T11:22:38.766Z,99116.84
2019-04-07T11:25:25.140Z,99112.30
2019-04-07T11:28:14.771Z,99117.30
2019-04-07T11:30:55.436Z,99112.80
2019-04-07T11:33:31.144Z,99106.90
2019-04-07T11:36:17.996Z,99111.16
2019-04-07T11:39:13.489Z,99117.66
2019-04-07T11:42:04.694Z,99117.08
2019-04-07T11:44:45.631Z,99121.03
2019-04-07T11:47:40.661Z,99118.47
2019-04-07T11:50:28.045Z,99112.41
2019-04-07T11:53:15.700Z,99113.50
2019-04-07T11:55:53.242Z,99112.23
2019-04-07T11:58:38.645Z,99111.79
2019-04-07T12:01:30.169Z,99113.58
2019-04-07T12:04:27.882Z,99100.63
2019-04-07T12:07:09.008Z,99108.77
2019-04-07T12:10:08.370Z,99117.73
2019-04-07T12:12:49.445Z,99110.44
2019-04-07T12:15:47.226Z,99110.05
2019-04-07T12:18:23.451Z,99112.19
2019-04-07T12:21:24.017Z,99112.24
2019-04-07T12:24:10.896Z,99111.17
2019-04-07T12:26:52.087Z,99103.52
2019-04-07T12:29:33.152Z,99105.44
2019-04-07T12:32:20.222Z,99108.49
2019-04-07T12:34:59.839Z,99106.08
2019-04-07T12:37:47.719Z,99098.06
2019-04-07T12:40:25.923Z,99091.69
2019-04-07T12:43:14.035Z,99103.34
2019-04-07T12:45:45.067Z,99096.45
2019-04-07T12:48:25.907Z,99094.75
2019-04-07T12:51:17.651Z,99094.11
2019-04-07T12:53:53.647Z,99099.44
2019-04-07T12:56:31.697Z,99085.52
2019-04-07T12:59:05.679Z,99081.41
2019-04-07T13:01:49.655Z,99086.25
2019-04-07T13:04:30.148Z,99080.48
2019-04-07T13:07:01.366Z,99080.30
2019-04-07T13:09:41.869Z,99082.33
2019-04-07T13:12:24.675Z,99076.09
2019-04-07T13:14:54.674Z,99079.52
2019-04-07T13:17:42.256Z,99077.67
2019-04-07T13:20:18.103Z,99080.19
2019-04-07T13:22:47.564Z,99076.33
2019-04-07T13:25:31.292Z,99070.45
2019-04-07T13:28:06.462Z,99079.76
2019-04-07T13:30:39.169Z,99071.81
2019-04-07T13:33:20.428Z,99070.86
2019-04-07T13:35:55.068Z,99072.64
2019-04-07T13:38:44.625Z,99064.82
2019-04-07T13:41:20.244Z,99051.86
2019-04-07T13:43:51.703Z,99048.57
2019-04-07T13:46:31.861Z,99047.32
2019-04-07T13:49:00.410Z,99047.03
2019-04-07T13:51:51.375Z,99047.27
2019-04-07T13:54:39.395Z,99050.78
2019-04-07T13:57:27.618Z,99044.09
2019-04-07T14:00:16.238Z,99038.93
2019-04-07T14:03:04.818Z,99036.66
2019-04-07T14:05:40.044Z,99029.20
2019-04-07T14:08:11.646Z,99037.19
2019-04-07T14:10:58.247Z,99038.89
2019-04-07T14:13:40.707Z,99052.86
2019-04-07T14:16:22.848Z,99047.74
2019-04-07T14:18:54.568Z,99044.80
2019-04-07T14:21:35.629Z,99050.34
2019-04-07T14:24:25.274Z,99043.36
2019-04-07T14:26:56.701Z,99047.22
2019-04-07T14:29:30.667Z,99051.20
2019-04-07T14:32:18.450Z,99051.39
2019-04-07T14:34:58.673Z,99051.78
2019-04-07T14:37:30.786Z,99038.73
2019-04-07T14:40:01.941Z,99050.95
2019-04-07T14:42:33.044Z,99046.30
2019-04-07T14:45:06.786Z,99043.07
2019-04-07T14:47:38.201Z,99050.79
2019-04-07T14:50:15.650Z,99058.28
2019-04-07T14:53:03.221Z,99045.97
2019-04-07T14:55:41.149Z,99050.84
2019-04-07T14:58:17.255Z,99051.09
2019-04-07T15:01:05.785Z,99055.40
2019-04-07T15:03:35.191Z,99055.34
2019-04-07T15:06:05.429Z,99052.36
2019-04-07T15:08:36.656Z,99052.09
2019-04-07T15:11:14.000Z,99047.34
2019-04-07T15:13:44.627Z,99041.64
2019-04-07T15:16:13.037Z,99041.13
2019-04-07T15:18:42.528Z,99048.84
2019-04-07T15:21:11.994Z,99054.99
2019-04-07T15:23:44.833Z,99053.88
2019-04-07T15:26:15.767Z,99056.67
2019-04-07T15:28:44.672Z,99057.80
2019-04-07T15:31:17.505Z,99051.70
2019-04-07T15:33:47.877Z,99055.78
2019-04-07T15:36:18.712Z,99060.45
2019-04-07T15:38:49.739Z,99055.78
2019-04-07T15:41:19.612Z,99059.33
2019-04-07T15:43:49.981Z,99056.22
2019-04-07T15:46:19.704Z,99058.78
2019-04-07T15:48:49.816Z,99058.17
2019-04-07T15:51:19.649Z,99059.92
2019-04-07T15:53:51.686Z,99061.81
2019-04-07T15:56:20.946Z,99063.78
2019-04-07T15:58:51.508Z,99058.19
2019-04-07T16:01:21.743Z,99067.01
2019-04-07T16:03:54.420Z,99067.57
2019-04-07T16:06:22.603Z,99068.38
2019-04-07T16:08:52.099Z,99067.87
2019-04-07T16:11:24.426Z,99061.75
2019-04-07T16:13:52.966Z,99074.55
2019-04-07T16:16:26.536Z,99069.28
2019-04-07T16:18:53.658Z,99069.39
2019-04-07T16:21:24.090Z,99081.45
2019-04-07T16:23:54.336Z,99080.47
2019-04-07T16:26:26.024Z,99079.41
2019-04-07T16:28:56.247Z,99083.11
2019-04-07T16:31:25.969Z,99083.25
2019-04-07T16:33:56.163Z,99082.56
2019-04-07T16:36:26.621Z,99082.50
2019-04-07T16:38:56.492Z,99081.81
2019-04-07T16:41:27.620Z,99082.87
2019-04-07T16:43:57.389Z,99078.41
2019-04-07T16:46:26.890Z,99087.70
2019-04-07T16:48:56.346Z,99095.34
2019-04-07T16:51:28.795Z,99091.20
2019-04-07T16:53:57.275Z,99092.81
2019-04-07T16:56:27.608Z,99092.82
2019-04-07T16:58:57.088Z,99102.17
2019-04-07T17:01:26.684Z,99097.34
2019-04-07T17:03:56.480Z,99094.37
2019-04-07T17:06:31.339Z,99093.84
2019-04-07T17:08:57.413Z,99091.39
2019-04-07T17:11:26.888Z,99096.52
2019-04-07T17:13:56.959Z,99097.70
2019-04-07T17:16:26.881Z,99097.08
2019-04-07T17:18:57.375Z,99098.54
2019-04-07T17:21:27.717Z,99101.52
2019-04-07T17:23:58.061Z,99103.16
2019-04-07T17:26:27.871Z,99104.34
2019-04-07T17:28:58.588Z,99103.72
2019-04-07T17:31:31.818Z,99109.81
2019-04-07T17:34:00.937Z,99107.28
2019-04-07T17:36:31.407Z,99106.81
2019-04-07T17:39:11.752Z,99108.56
2019-04-07T17:41:41.668Z,99113.45
2019-04-07T17:44:23.385Z,99111.28
2019-04-07T17:46:58.472Z,99120.81
2019-04-07T17:49:46.360Z,99113.31
2019-04-07T17:52:35.822Z,99125.98
2019-04-07T17:55:10.898Z,99127.97
2019-04-07T17:57:45.051Z,99126.54
2019-04-07T18:00:33.137Z,99120.17
2019-04-07T18:03:16.578Z,99127.06
2019-04-07T18:05:48.585Z,99127.16
2019-04-07T18:08:22.474Z,99129.25
2019-04-07T18:11:09.791Z,99135.20
2019-04-07T18:13:51.528Z,99133.95
2019-04-07T18:16:38.579Z,99139.27
2019-04-07T18:19:15.897Z,99143.66
2019-04-07T18:22:03.578Z,99144.08
2019-04-07T18:24:51.037Z,99148.66
2019-04-07T18:27:25.332Z,99143.03
2019-04-07T18:30:00.787Z,99150.86
2019-04-07T18:32:49.374Z,99155.24
2019-04-07T18:35:20.561Z,99155.55
2019-04-07T18:38:00.523Z,99162.03
2019-04-07T18:40:40.889Z,99165.05
2019-04-07T18:43:19.893Z,99167.46
2019-04-07T18:46:08.535Z,99162.23
2019-04-07T18:48:42.403Z,99170.27
2019-04-07T18:51:29.901Z,99173.09
2019-04-07T18:54:05.510Z,99177.03
2019-04-07T18:56:46.095Z,99178.00
2019-04-07T18:59:33.892Z,99182.70
2019-04-07T19:02:10.953Z,99183.42
2019-04-07T19:04:41.370Z,99188.53
2019-04-07T19:07:16.990Z,99188.11
2019-04-07T19:10:07.169Z,99189.67
2019-04-07T19:12:39.171Z,99190.83
2019-04-07T19:15:29.745Z,99188.00
2019-04-07T19:18:18.177Z,99193.53
2019-04-07T19:20:52.037Z,99202.19
2019-04-07T19:23:32.670Z,99199.60
2019-04-07T19:26:04.354Z,99199.80
2019-04-07T19:28:51.833Z,99199.17
2019-04-07T19:31:39.502Z,99205.64
2019-04-07T19:34:14.836Z,99202.82
2019-04-07T19:36:48.069Z,99201.24
2019-04-07T19:39:23.692Z,99207.08
2019-04-07T19:41:55.137Z,99203.97
2019-04-07T19:44:43.126Z,99212.20
2019-04-07T19:47:34.357Z,99206.55
2019-04-07T19:50:22.721Z,99205.80
2019-04-07T19:53:13.270Z,99206.95
2019-04-07T19:55:44.436Z,99211.83
2019-04-07T19:58:24.332Z,99212.27
2019-04-07T20:01:01.220Z,99214.34
2019-04-07T20:03:31.989Z,99219.45
2019-04-07T20:06:22.229Z,99212.67
2019-04-07T20:08:52.094Z,99221.52
2019-04-07T20:11:37.121Z,99217.75
2019-04-07T20:14:13.974Z,99218.88
2019-04-07T20:16:59.912Z,99208.72
2019-04-07T20:19:38.265Z,99211.20
2019-04-07T20:22:15.601Z,99218.13
2019-04-07T20:25:03.150Z,99216.66
2019-04-07T20:27:34.351Z,99217.29
2019-04-07T20:30:13.489Z,99218.46
2019-04-07T20:32:46.879Z,99221.96
2019-04-07T20:35:33.139Z,99222.72
2019-04-07T20:38:10.548Z,99220.50
2019-04-07T20:40:53.405Z,99221.83
2019-04-07T20:43:33.513Z,99219.34
2019-04-07T20:46:04.681Z,99219.98
2019-04-07T20:48:47.792Z,99233.43
2019-04-07T20:51:19.150Z,99211.69
2019-04-07T20:53:51.425Z,99220.23
2019-04-07T20:56:25.314Z,99218.19
2019-04-07T20:59:08.397Z,99221.13
2019-04-07T21:01:44.549Z,99225.62
2019-04-07T21:04:28.911Z,99225.16
2019-04-07T21:07:15.389Z,99228.45
2019-04-07T21:09:56.636Z,99227.10
2019-04-07T21:12:30.126Z,99225.58
2019-04-07T21:15:16.101Z,99225.58
2019-04-07T21:17:36.477Z,99223.02
2019-04-07T21:20:13.057Z,99221.44
2019-04-07T21:23:00.713Z,99219.09
2019-04-07T21:25:31.867Z,99217.02
2019-04-07T21:28:07.573Z,99226.44
2019-04-07T21:30:43.024Z,99221.73
2019-04-07T21:33:26.956Z,99224.58
2019-04-07T21:36:14.986Z,99229.08
2019-04-07T21:39:04.581Z,99230.85
2019-04-07T21:41:36.287Z,99230.61
2019-04-07T21:44:28.546Z,99231.51
2019-04-07T21:47:14.457Z,99231.20
2019-04-07T21:50:06.218Z,99230.95
2019-04-07T21:52:54.752Z,99237.21
2019-04-07T21:55:29.246Z,99238.06
2019-04-07T21:58:03.129Z,99230.56
2019-04-07T22:00:51.100Z,99227.56
2019-04-07T22:03:23.664Z,99232.13
2019-04-07T22:06:11.072Z,99235.23
2019-04-07T22:08:54.345Z,99236.59
2019-04-07T22:11:28.131Z,99233.23
2019-04-07T22:13:55.423Z,99235.27
2019-04-07T22:16:25.601Z,99233.25
2019-04-07T22:18:56.890Z,99229.88
2019-04-07T22:21:26.383Z,99229.70
2019-04-07T22:23:56.201Z,99232.92
2019-04-07T22:26:26.387Z,99237.81
2019-04-07T22:28:56.925Z,99235.01
2019-04-07T22:31:34.638Z,99230.80
2019-04-07T22:34:04.771Z,99240.57
2019-04-07T22:36:34.261Z,99237.88
2019-04-07T22:39:05.679Z,99243.84
2019-04-07T22:41:37.006Z,99237.25
2019-04-07T22:44:07.125Z,99240.64
2019-04-07T22:46:37.395Z,99236.77
2019-04-07T22:49:07.141Z,99238.46
2019-04-07T22:51:38.108Z,99241.66
2019-04-07T22:54:07.907Z,99238.98
2019-04-07T22:56:39.348Z,99242.52
2019-04-07T22:59:10.505Z,99236.31
2019-04-07T23:01:40.796Z,99238.55
2019-04-07T23:04:10.819Z,99241.91
2019-04-07T23:06:40.459Z,99235.34
2019-04-07T23:09:10.027Z,99238.20
2019-04-07T23:11:39.853Z,99239.39
2019-04-07T23:14:09.553Z,99239.23
2019-04-07T23:16:39.049Z,99245.31
2019-04-07T23:19:08.884Z,99243.02
2019-04-07T23:21:38.344Z,99248.09
2019-04-07T23:24:07.834Z,99253.36
2019-04-07T23:26:37.291Z,99254.04
2019-04-07T23:29:06.768Z,99244.30
2019-04-07T23:31:36.812Z,99255.44
2019-04-07T23:34:06.425Z,99257.12
2019-04-07T23:36:36.238Z,99257.99
2019-04-07T23:39:06.872Z,99259.00
2019-04-07T23:41:37.099Z,99264.00
2019-04-07T23:44:07.319Z,99267.38
2019-04-07T23:46:36.903Z,99271.06
2019-04-07T23:49:06.376Z,99266.36
2019-04-07T23:51:35.833Z,99262.66
2019-04-07T23:54:09.530Z,99263.33
2019-04-07T23:56:40.234Z,99260.31
2019-04-07T23:59:10.399Z,99257.30
